sensor_id;sensor_type;location;lat;lon;timestamp;P1;durP1;ratioP1;P2;durP2;ratioP2
50555;SDS011;36508;52.512;13.450;2023-04-24T00:01:30;6.43;;;6.00;;
50555;SDS011;36508;52.512;13.450;2023-04-24T00:03:56;6.40;;;6.10;;
50555;SDS011;36508;52.512;13.450;2023-04-24T00:06:25;5.93;;;5.53;;
50555;SDS011;36508;52.512;13.450;2023-04-24T00:08:57;5.73;;;5.43;;
50555;SDS011;36508;52.512;13.450;2023-04-24T00:11:24;7.40;;;5.93;;
50555;SDS011;36508;52.512;13.450;2023-04-24T00:13:50;6.37;;;6.00;;
50555;SDS011;36508;52.512;13.450;2023-04-24T00:16:16;7.23;;;6.50;;
50555;SDS011;36508;52.512;13.450;2023-04-24T00:18:41;5.40;;;5.10;;
50555;SDS011;36508;52.512;13.450;2023-04-24T00:21:07;7.97;;;6.97;;
50555;SDS011;36508;52.512;13.450;2023-04-24T00:23:33;6.70;;;6.30;;
50555;SDS011;36508;52.512;13.450;2023-04-24T00:25:58;7.07;;;6.73;;
50555;SDS011;36508;52.512;13.450;2023-04-24T00:28:24;9.13;;;8.43;;
50555;SDS011;36508;52.512;13.450;2023-04-24T00:30:50;7.20;;;6.70;;
50555;SDS011;36508;52.512;13.450;2023-04-24T00:33:15;6.33;;;5.73;;
50555;SDS011;36508;52.512;13.450;2023-04-24T00:35:41;6.97;;;6.37;;
50555;SDS011;36508;52.512;13.450;2023-04-24T00:38:07;6.23;;;5.83;;
50555;SDS011;36508;52.512;13.450;2023-04-24T00:40:32;6.23;;;5.83;;
50555;SDS011;36508;52.512;13.450;2023-04-24T00:42:58;6.17;;;5.77;;
50555;SDS011;36508;52.512;13.450;2023-04-24T00:45:24;6.70;;;6.30;;
50555;SDS011;36508;52.512;13.450;2023-04-24T00:47:50;7.07;;;6.57;;
50555;SDS011;36508;52.512;13.450;2023-04-24T00:50:17;5.27;;;4.97;;
50555;SDS011;36508;52.512;13.450;2023-04-24T00:52:44;5.47;;;5.17;;
50555;SDS011;36508;52.512;13.450;2023-04-24T00:55:30;5.93;;;5.60;;
50555;SDS011;36508;52.512;13.450;2023-04-24T00:57:56;6.53;;;6.13;;
50555;SDS011;36508;52.512;13.450;2023-04-24T01:00:22;5.13;;;4.93;;
50555;SDS011;36508;52.512;13.450;2023-04-24T01:02:48;7.03;;;6.60;;
50555;SDS011;36508;52.512;13.450;2023-04-24T01:05:16;6.30;;;5.90;;
50555;SDS011;36508;52.512;13.450;2023-04-24T01:07:43;6.90;;;6.50;;
50555;SDS011;36508;52.512;13.450;2023-04-24T01:10:10;7.33;;;6.87;;
50555;SDS011;36508;52.512;13.450;2023-04-24T01:12:38;5.40;;;5.10;;
50555;SDS011;36508;52.512;13.450;2023-04-24T01:15:04;6.63;;;6.13;;
50555;SDS011;36508;52.512;13.450;2023-04-24T01:17:31;8.27;;;7.67;;
50555;SDS011;36508;52.512;13.450;2023-04-24T01:19:57;6.17;;;5.70;;
50555;SDS011;36508;52.512;13.450;2023-04-24T01:22:25;7.20;;;6.60;;
50555;SDS011;36508;52.512;13.450;2023-04-24T01:24:51;6.70;;;6.20;;
50555;SDS011;36508;52.512;13.450;2023-04-24T01:27:18;6.73;;;6.30;;
50555;SDS011;36508;52.512;13.450;2023-04-24T01:29:44;7.40;;;6.80;;
50555;SDS011;36508;52.512;13.450;2023-04-24T01:32:10;5.67;;;5.27;;
50555;SDS011;36508;52.512;13.450;2023-04-24T01:34:36;6.67;;;6.13;;
50555;SDS011;36508;52.512;13.450;2023-04-24T01:37:02;5.70;;;5.37;;
50555;SDS011;36508;52.512;13.450;2023-04-24T01:39:28;6.90;;;6.43;;
50555;SDS011;36508;52.512;13.450;2023-04-24T01:41:54;7.87;;;7.27;;
50555;SDS011;36508;52.512;13.450;2023-04-24T01:44:20;6.77;;;6.37;;
50555;SDS011;36508;52.512;13.450;2023-04-24T01:46:47;5.83;;;5.50;;
50555;SDS011;36508;52.512;13.450;2023-04-24T01:49:12;7.87;;;7.27;;
50555;SDS011;36508;52.512;13.450;2023-04-24T01:51:41;7.27;;;6.77;;
50555;SDS011;36508;52.512;13.450;2023-04-24T01:54:07;7.97;;;7.47;;
50555;SDS011;36508;52.512;13.450;2023-04-24T01:56:33;8.27;;;7.57;;
50555;SDS011;36508;52.512;13.450;2023-04-24T01:59:05;7.57;;;6.87;;
50555;SDS011;36508;52.512;13.450;2023-04-24T02:02:20;6.97;;;6.53;;
50555;SDS011;36508;52.512;13.450;2023-04-24T02:04:24;7.30;;;6.80;;
50555;SDS011;36508;52.512;13.450;2023-04-24T02:06:50;7.67;;;6.93;;
50555;SDS011;36508;52.512;13.450;2023-04-24T02:09:16;8.23;;;7.63;;
50555;SDS011;36508;52.512;13.450;2023-04-24T02:11:41;8.90;;;8.20;;
50555;SDS011;36508;52.512;13.450;2023-04-24T02:14:07;8.07;;;7.37;;
50555;SDS011;36508;52.512;13.450;2023-04-24T02:16:33;8.53;;;7.40;;
50555;SDS011;36508;52.512;13.450;2023-04-24T02:19:00;8.80;;;8.10;;
50555;SDS011;36508;52.512;13.450;2023-04-24T02:21:27;8.67;;;7.87;;
50555;SDS011;36508;52.512;13.450;2023-04-24T02:23:53;8.20;;;7.60;;
50555;SDS011;36508;52.512;13.450;2023-04-24T02:26:19;7.40;;;6.83;;
50555;SDS011;36508;52.512;13.450;2023-04-24T02:28:44;7.67;;;6.97;;
50555;SDS011;36508;52.512;13.450;2023-04-24T02:31:10;7.30;;;6.80;;
50555;SDS011;36508;52.512;13.450;2023-04-24T02:33:36;7.87;;;7.27;;
50555;SDS011;36508;52.512;13.450;2023-04-24T02:36:02;7.60;;;7.10;;
50555;SDS011;36508;52.512;13.450;2023-04-24T02:38:28;7.90;;;7.30;;
50555;SDS011;36508;52.512;13.450;2023-04-24T02:40:54;9.90;;;9.10;;
50555;SDS011;36508;52.512;13.450;2023-04-24T02:43:19;7.37;;;6.87;;
50555;SDS011;36508;52.512;13.450;2023-04-24T02:45:45;8.43;;;7.83;;
50555;SDS011;36508;52.512;13.450;2023-04-24T02:48:11;14.33;;;12.87;;
50555;SDS011;36508;52.512;13.450;2023-04-24T02:50:36;8.77;;;8.17;;
50555;SDS011;36508;52.512;13.450;2023-04-24T02:53:03;6.57;;;6.17;;
50555;SDS011;36508;52.512;13.450;2023-04-24T02:55:29;6.97;;;6.53;;
50555;SDS011;36508;52.512;13.450;2023-04-24T02:57:55;7.50;;;7.00;;
50555;SDS011;36508;52.512;13.450;2023-04-24T03:00:21;7.00;;;6.60;;
50555;SDS011;36508;52.512;13.450;2023-04-24T03:02:46;9.20;;;8.50;;
50555;SDS011;36508;52.512;13.450;2023-04-24T03:05:14;8.70;;;8.10;;
50555;SDS011;36508;52.512;13.450;2023-04-24T03:07:40;10.63;;;9.90;;
50555;SDS011;36508;52.512;13.450;2023-04-24T03:10:06;8.90;;;8.20;;
50555;SDS011;36508;52.512;13.450;2023-04-24T03:12:32;8.70;;;8.10;;
50555;SDS011;36508;52.512;13.450;2023-04-24T03:14:58;8.87;;;8.27;;
50555;SDS011;36508;52.512;13.450;2023-04-24T03:17:24;8.80;;;8.10;;
50555;SDS011;36508;52.512;13.450;2023-04-24T03:19:50;9.53;;;8.83;;
50555;SDS011;36508;52.512;13.450;2023-04-24T03:22:15;10.40;;;9.70;;
50555;SDS011;36508;52.512;13.450;2023-04-24T03:24:41;8.43;;;7.83;;
50555;SDS011;36508;52.512;13.450;2023-04-24T03:27:07;8.07;;;7.47;;
50555;SDS011;36508;52.512;13.450;2023-04-24T03:29:33;13.00;;;7.47;;
50555;SDS011;36508;52.512;13.450;2023-04-24T03:31:58;8.63;;;8.03;;
50555;SDS011;36508;52.512;13.450;2023-04-24T03:34:24;8.43;;;7.73;;
50555;SDS011;36508;52.512;13.450;2023-04-24T03:36:50;7.83;;;7.33;;
50555;SDS011;36508;52.512;13.450;2023-04-24T03:39:15;8.50;;;7.90;;
50555;SDS011;36508;52.512;13.450;2023-04-24T03:41:41;7.83;;;7.33;;
50555;SDS011;36508;52.512;13.450;2023-04-24T03:44:07;9.27;;;8.63;;
50555;SDS011;36508;52.512;13.450;2023-04-24T03:46:33;11.00;;;7.87;;
50555;SDS011;36508;52.512;13.450;2023-04-24T03:48:58;7.10;;;6.60;;
50555;SDS011;36508;52.512;13.450;2023-04-24T03:51:24;7.57;;;7.07;;
50555;SDS011;36508;52.512;13.450;2023-04-24T03:53:50;7.60;;;7.13;;
50555;SDS011;36508;52.512;13.450;2023-04-24T03:56:16;8.50;;;7.80;;
50555;SDS011;36508;52.512;13.450;2023-04-24T03:58:41;7.03;;;6.63;;
50555;SDS011;36508;52.512;13.450;2023-04-24T04:01:07;7.30;;;6.70;;
50555;SDS011;36508;52.512;13.450;2023-04-24T04:03:33;5.93;;;5.63;;
50555;SDS011;36508;52.512;13.450;2023-04-24T04:05:59;7.33;;;6.63;;
50555;SDS011;36508;52.512;13.450;2023-04-24T04:08:24;7.07;;;6.57;;
50555;SDS011;36508;52.512;13.450;2023-04-24T04:10:50;8.53;;;8.03;;
50555;SDS011;36508;52.512;13.450;2023-04-24T04:13:16;6.40;;;6.00;;
50555;SDS011;36508;52.512;13.450;2023-04-24T04:15:41;7.43;;;6.97;;
50555;SDS011;36508;52.512;13.450;2023-04-24T04:18:07;7.67;;;7.23;;
50555;SDS011;36508;52.512;13.450;2023-04-24T04:20:33;7.50;;;6.80;;
50555;SDS011;36508;52.512;13.450;2023-04-24T04:22:59;7.27;;;6.77;;
50555;SDS011;36508;52.512;13.450;2023-04-24T04:25:24;7.90;;;7.40;;
50555;SDS011;36508;52.512;13.450;2023-04-24T04:27:50;8.43;;;7.83;;
50555;SDS011;36508;52.512;13.450;2023-04-24T04:30:17;7.23;;;6.83;;
50555;SDS011;36508;52.512;13.450;2023-04-24T04:32:43;9.50;;;8.67;;
50555;SDS011;36508;52.512;13.450;2023-04-24T04:35:09;7.80;;;7.30;;
50555;SDS011;36508;52.512;13.450;2023-04-24T04:37:35;7.00;;;6.40;;
50555;SDS011;36508;52.512;13.450;2023-04-24T04:40:01;8.17;;;7.67;;
50555;SDS011;36508;52.512;13.450;2023-04-24T04:42:37;7.97;;;7.20;;
50555;SDS011;36508;52.512;13.450;2023-04-24T04:45:08;6.20;;;5.90;;
50555;SDS011;36508;52.512;13.450;2023-04-24T04:47:34;6.70;;;6.30;;
50555;SDS011;36508;52.512;13.450;2023-04-24T04:50:00;6.87;;;6.37;;
50555;SDS011;36508;52.512;13.450;2023-04-24T04:52:26;8.40;;;7.70;;
50555;SDS011;36508;52.512;13.450;2023-04-24T04:54:52;7.03;;;6.63;;
50555;SDS011;36508;52.512;13.450;2023-04-24T04:57:18;6.67;;;6.20;;
50555;SDS011;36508;52.512;13.450;2023-04-24T04:59:43;7.67;;;7.17;;
50555;SDS011;36508;52.512;13.450;2023-04-24T05:02:09;7.90;;;7.30;;
50555;SDS011;36508;52.512;13.450;2023-04-24T05:04:35;7.43;;;6.93;;
50555;SDS011;36508;52.512;13.450;2023-04-24T05:07:00;7.93;;;7.30;;
50555;SDS011;36508;52.512;13.450;2023-04-24T05:09:26;6.70;;;6.30;;
50555;SDS011;36508;52.512;13.450;2023-04-24T05:11:54;8.30;;;7.63;;
50555;SDS011;36508;52.512;13.450;2023-04-24T05:14:20;6.63;;;6.13;;
50555;SDS011;36508;52.512;13.450;2023-04-24T05:16:46;5.83;;;5.43;;
50555;SDS011;36508;52.512;13.450;2023-04-24T05:19:12;7.30;;;6.90;;
50555;SDS011;36508;52.512;13.450;2023-04-24T05:21:39;6.20;;;5.70;;
50555;SDS011;36508;52.512;13.450;2023-04-24T05:24:05;6.60;;;6.07;;
50555;SDS011;36508;52.512;13.450;2023-04-24T05:26:31;6.37;;;6.00;;
50555;SDS011;36508;52.512;13.450;2023-04-24T05:28:57;6.70;;;6.30;;
50555;SDS011;36508;52.512;13.450;2023-04-24T05:31:23;6.77;;;6.37;;
50555;SDS011;36508;52.512;13.450;2023-04-24T05:33:48;6.10;;;5.70;;
50555;SDS011;36508;52.512;13.450;2023-04-24T05:36:14;6.00;;;5.60;;
50555;SDS011;36508;52.512;13.450;2023-04-24T05:38:40;4.90;;;4.60;;
50555;SDS011;36508;52.512;13.450;2023-04-24T05:41:06;6.30;;;5.80;;
50555;SDS011;36508;52.512;13.450;2023-04-24T05:43:31;5.50;;;5.00;;
50555;SDS011;36508;52.512;13.450;2023-04-24T05:45:57;5.80;;;5.30;;
50555;SDS011;36508;52.512;13.450;2023-04-24T05:48:23;5.73;;;4.50;;
50555;SDS011;36508;52.512;13.450;2023-04-24T05:50:48;4.50;;;4.20;;
50555;SDS011;36508;52.512;13.450;2023-04-24T05:53:15;4.47;;;4.07;;
50555;SDS011;36508;52.512;13.450;2023-04-24T05:55:42;7.90;;;3.90;;
50555;SDS011;36508;52.512;13.450;2023-04-24T05:58:08;3.80;;;3.60;;
50555;SDS011;36508;52.512;13.450;2023-04-24T06:00:34;3.67;;;3.47;;
50555;SDS011;36508;52.512;13.450;2023-04-24T06:03:00;3.47;;;3.17;;
50555;SDS011;36508;52.512;13.450;2023-04-24T06:05:26;3.60;;;3.40;;
50555;SDS011;36508;52.512;13.450;2023-04-24T06:07:51;5.10;;;3.30;;
50555;SDS011;36508;52.512;13.450;2023-04-24T06:10:17;4.00;;;3.80;;
50555;SDS011;36508;52.512;13.450;2023-04-24T06:12:43;3.40;;;3.13;;
50555;SDS011;36508;52.512;13.450;2023-04-24T06:15:08;3.83;;;3.20;;
50555;SDS011;36508;52.512;13.450;2023-04-24T06:17:34;2.97;;;2.80;;
50555;SDS011;36508;52.512;13.450;2023-04-24T06:20:01;2.80;;;2.60;;
50555;SDS011;36508;52.512;13.450;2023-04-24T06:22:28;2.60;;;2.40;;
50555;SDS011;36508;52.512;13.450;2023-04-24T06:24:54;2.67;;;2.57;;
50555;SDS011;36508;52.512;13.450;2023-04-24T06:27:20;2.40;;;2.30;;
50555;SDS011;36508;52.512;13.450;2023-04-24T06:29:46;3.73;;;2.40;;
50555;SDS011;36508;52.512;13.450;2023-04-24T06:32:17;3.00;;;2.80;;
50555;SDS011;36508;52.512;13.450;2023-04-24T06:34:43;2.30;;;2.20;;
50555;SDS011;36508;52.512;13.450;2023-04-24T06:37:08;2.13;;;2.03;;
50555;SDS011;36508;52.512;13.450;2023-04-24T06:39:34;2.30;;;2.20;;
50555;SDS011;36508;52.512;13.450;2023-04-24T06:41:59;3.03;;;2.83;;
50555;SDS011;36508;52.512;13.450;2023-04-24T06:44:25;2.87;;;2.77;;
50555;SDS011;36508;52.512;13.450;2023-04-24T06:46:51;2.97;;;2.30;;
50555;SDS011;36508;52.512;13.450;2023-04-24T06:49:17;2.00;;;1.90;;
50555;SDS011;36508;52.512;13.450;2023-04-24T06:51:43;4.53;;;1.57;;
50555;SDS011;36508;52.512;13.450;2023-04-24T06:54:09;2.57;;;2.37;;
50555;SDS011;36508;52.512;13.450;2023-04-24T06:56:35;1.90;;;1.80;;
50555;SDS011;36508;52.512;13.450;2023-04-24T06:59:01;3.53;;;1.60;;
50555;SDS011;36508;52.512;13.450;2023-04-24T07:01:27;2.70;;;1.97;;
50555;SDS011;36508;52.512;13.450;2023-04-24T07:03:52;3.10;;;2.90;;
50555;SDS011;36508;52.512;13.450;2023-04-24T07:06:18;2.20;;;2.10;;
50555;SDS011;36508;52.512;13.450;2023-04-24T07:08:47;2.07;;;1.87;;
50555;SDS011;36508;52.512;13.450;2023-04-24T07:11:13;2.70;;;1.80;;
50555;SDS011;36508;52.512;13.450;2023-04-24T07:13:38;4.73;;;4.23;;
50555;SDS011;36508;52.512;13.450;2023-04-24T07:16:06;1.80;;;1.70;;
50555;SDS011;36508;52.512;13.450;2023-04-24T07:18:33;1.63;;;1.53;;
50555;SDS011;36508;52.512;13.450;2023-04-24T07:21:00;1.70;;;1.60;;
50555;SDS011;36508;52.512;13.450;2023-04-24T07:23:25;1.60;;;1.50;;
50555;SDS011;36508;52.512;13.450;2023-04-24T07:25:51;3.23;;;2.60;;
50555;SDS011;36508;52.512;13.450;2023-04-24T07:28:17;4.00;;;1.43;;
50555;SDS011;36508;52.512;13.450;2023-04-24T07:30:43;1.20;;;1.10;;
50555;SDS011;36508;52.512;13.450;2023-04-24T07:33:08;1.30;;;1.20;;
50555;SDS011;36508;52.512;13.450;2023-04-24T07:35:36;1.43;;;1.33;;
50555;SDS011;36508;52.512;13.450;2023-04-24T07:38:01;1.43;;;1.33;;
50555;SDS011;36508;52.512;13.450;2023-04-24T07:40:27;1.23;;;1.23;;
50555;SDS011;36508;52.512;13.450;2023-04-24T07:42:53;0.80;;;0.80;;
50555;SDS011;36508;52.512;13.450;2023-04-24T07:45:18;0.80;;;0.80;;
50555;SDS011;36508;52.512;13.450;2023-04-24T07:47:44;1.37;;;0.90;;
50555;SDS011;36508;52.512;13.450;2023-04-24T07:50:10;0.90;;;0.90;;
50555;SDS011;36508;52.512;13.450;2023-04-24T07:52:37;1.40;;;0.97;;
50555;SDS011;36508;52.512;13.450;2023-04-24T07:55:03;0.70;;;0.70;;
50555;SDS011;36508;52.512;13.450;2023-04-24T07:57:29;1.87;;;1.00;;
50555;SDS011;36508;52.512;13.450;2023-04-24T07:59:55;0.93;;;0.90;;
50555;SDS011;36508;52.512;13.450;2023-04-24T08:02:21;1.70;;;1.00;;
50555;SDS011;36508;52.512;13.450;2023-04-24T08:04:51;0.87;;;0.80;;
50555;SDS011;36508;52.512;13.450;2023-04-24T08:07:19;0.93;;;0.93;;
50555;SDS011;36508;52.512;13.450;2023-04-24T08:09:45;1.97;;;1.03;;
50555;SDS011;36508;52.512;13.450;2023-04-24T08:12:11;0.70;;;0.70;;
50555;SDS011;36508;52.512;13.450;2023-04-24T08:14:36;1.17;;;1.07;;
50555;SDS011;36508;52.512;13.450;2023-04-24T08:17:02;2.50;;;1.30;;
50555;SDS011;36508;52.512;13.450;2023-04-24T08:19:28;1.43;;;1.23;;
50555;SDS011;36508;52.512;13.450;2023-04-24T08:21:54;1.10;;;1.00;;
50555;SDS011;36508;52.512;13.450;2023-04-24T08:24:20;2.10;;;0.80;;
50555;SDS011;36508;52.512;13.450;2023-04-24T08:26:45;1.23;;;1.17;;
50555;SDS011;36508;52.512;13.450;2023-04-24T08:29:11;1.60;;;0.90;;
50555;SDS011;36508;52.512;13.450;2023-04-24T08:31:37;1.67;;;1.17;;
50555;SDS011;36508;52.512;13.450;2023-04-24T08:34:02;0.93;;;0.93;;
50555;SDS011;36508;52.512;13.450;2023-04-24T08:36:28;3.10;;;1.37;;
50555;SDS011;36508;52.512;13.450;2023-04-24T08:38:54;1.07;;;1.07;;
50555;SDS011;36508;52.512;13.450;2023-04-24T08:41:20;1.00;;;1.00;;
50555;SDS011;36508;52.512;13.450;2023-04-24T08:43:49;3.20;;;1.53;;
50555;SDS011;36508;52.512;13.450;2023-04-24T08:46:16;2.20;;;0.97;;
50555;SDS011;36508;52.512;13.450;2023-04-24T08:48:45;1.40;;;1.30;;
50555;SDS011;36508;52.512;13.450;2023-04-24T08:51:11;2.03;;;0.90;;
50555;SDS011;36508;52.512;13.450;2023-04-24T08:53:37;1.40;;;1.30;;
50555;SDS011;36508;52.512;13.450;2023-04-24T08:56:03;2.20;;;2.10;;
50555;SDS011;36508;52.512;13.450;2023-04-24T08:58:29;1.53;;;1.00;;
50555;SDS011;36508;52.512;13.450;2023-04-24T09:00:56;0.90;;;0.90;;
50555;SDS011;36508;52.512;13.450;2023-04-24T09:03:22;1.73;;;0.70;;
50555;SDS011;36508;52.512;13.450;2023-04-24T09:05:48;1.57;;;1.47;;
50555;SDS011;36508;52.512;13.450;2023-04-24T09:08:16;0.77;;;0.70;;
50555;SDS011;36508;52.512;13.450;2023-04-24T09:10:43;1.00;;;0.90;;
50555;SDS011;36508;52.512;13.450;2023-04-24T09:13:09;1.60;;;1.10;;
50555;SDS011;36508;52.512;13.450;2023-04-24T09:15:35;1.97;;;1.10;;
50555;SDS011;36508;52.512;13.450;2023-04-24T09:18:05;0.90;;;0.90;;
50555;SDS011;36508;52.512;13.450;2023-04-24T09:20:31;10.10;;;2.27;;
50555;SDS011;36508;52.512;13.450;2023-04-24T09:23:01;1.20;;;1.03;;
50555;SDS011;36508;52.512;13.450;2023-04-24T09:25:33;3.90;;;2.40;;
50555;SDS011;36508;52.512;13.450;2023-04-24T09:28:03;2.10;;;1.07;;
50555;SDS011;36508;52.512;13.450;2023-04-24T09:30:29;7.00;;;2.73;;
50555;SDS011;36508;52.512;13.450;2023-04-24T09:33:11;3.67;;;3.37;;
50555;SDS011;36508;52.512;13.450;2023-04-24T09:35:41;1.70;;;1.00;;
50555;SDS011;36508;52.512;13.450;2023-04-24T09:38:10;3.00;;;2.80;;
50555;SDS011;36508;52.512;13.450;2023-04-24T09:40:36;2.40;;;2.23;;
50555;SDS011;36508;52.512;13.450;2023-04-24T09:43:01;2.17;;;1.93;;
50555;SDS011;36508;52.512;13.450;2023-04-24T09:45:28;3.43;;;3.13;;
50555;SDS011;36508;52.512;13.450;2023-04-24T09:48:08;1.53;;;1.27;;
50555;SDS011;36508;52.512;13.450;2023-04-24T09:50:35;4.67;;;1.43;;
50555;SDS011;36508;52.512;13.450;2023-04-24T09:53:04;2.40;;;2.20;;
50555;SDS011;36508;52.512;13.450;2023-04-24T09:55:39;1.40;;;1.30;;
50555;SDS011;36508;52.512;13.450;2023-04-24T09:58:05;2.17;;;1.30;;
50555;SDS011;36508;52.512;13.450;2023-04-24T10:00:33;2.60;;;2.03;;
50555;SDS011;36508;52.512;13.450;2023-04-24T10:02:59;0.90;;;0.90;;
50555;SDS011;36508;52.512;13.450;2023-04-24T10:05:27;1.40;;;1.13;;
50555;SDS011;36508;52.512;13.450;2023-04-24T10:07:57;2.33;;;2.13;;
50555;SDS011;36508;52.512;13.450;2023-04-24T10:10:28;2.13;;;1.10;;
50555;SDS011;36508;52.512;13.450;2023-04-24T10:12:55;2.10;;;1.00;;
50555;SDS011;36508;52.512;13.450;2023-04-24T10:15:21;1.07;;;1.07;;
50555;SDS011;36508;52.512;13.450;2023-04-24T10:17:50;1.80;;;1.57;;
50555;SDS011;36508;52.512;13.450;2023-04-24T10:20:20;1.40;;;1.30;;
50555;SDS011;36508;52.512;13.450;2023-04-24T10:22:48;2.47;;;1.80;;
50555;SDS011;36508;52.512;13.450;2023-04-24T10:25:19;1.23;;;1.10;;
50555;SDS011;36508;52.512;13.450;2023-04-24T10:27:46;2.27;;;2.10;;
50555;SDS011;36508;52.512;13.450;2023-04-24T10:30:12;2.03;;;1.93;;
50555;SDS011;36508;52.512;13.450;2023-04-24T10:32:39;1.87;;;1.30;;
50555;SDS011;36508;52.512;13.450;2023-04-24T10:35:06;1.33;;;0.90;;
50555;SDS011;36508;52.512;13.450;2023-04-24T10:37:40;1.40;;;1.30;;
50555;SDS011;36508;52.512;13.450;2023-04-24T10:40:24;1.30;;;1.20;;
50555;SDS011;36508;52.512;13.450;2023-04-24T10:42:52;5.93;;;1.10;;
50555;SDS011;36508;52.512;13.450;2023-04-24T10:45:19;0.90;;;0.90;;
50555;SDS011;36508;52.512;13.450;2023-04-24T10:47:56;1.70;;;1.60;;
50555;SDS011;36508;52.512;13.450;2023-04-24T10:50:23;1.10;;;1.00;;
50555;SDS011;36508;52.512;13.450;2023-04-24T10:52:50;1.00;;;1.00;;
50555;SDS011;36508;52.512;13.450;2023-04-24T10:55:39;2.90;;;1.00;;
50555;SDS011;36508;52.512;13.450;2023-04-24T10:58:16;1.03;;;0.90;;
50555;SDS011;36508;52.512;13.450;2023-04-24T11:00:58;1.10;;;1.00;;
50555;SDS011;36508;52.512;13.450;2023-04-24T11:03:29;1.77;;;0.90;;
50555;SDS011;36508;52.512;13.450;2023-04-24T11:05:57;1.97;;;1.40;;
50555;SDS011;36508;52.512;13.450;2023-04-24T11:08:42;1.43;;;1.30;;
50555;SDS011;36508;52.512;13.450;2023-04-24T11:21:43;1.03;;;1.00;;
50555;SDS011;36508;52.512;13.450;2023-04-24T11:27:19;2.03;;;1.30;;
50555;SDS011;36508;52.512;13.450;2023-04-24T11:32:27;2.20;;;1.10;;
50555;SDS011;36508;52.512;13.450;2023-04-24T11:34:59;1.13;;;1.03;;
50555;SDS011;36508;52.512;13.450;2023-04-24T11:37:27;3.23;;;3.00;;
50555;SDS011;36508;52.512;13.450;2023-04-24T11:39:56;1.97;;;1.33;;
50555;SDS011;36508;52.512;13.450;2023-04-24T11:42:23;1.53;;;1.43;;
50555;SDS011;36508;52.512;13.450;2023-04-24T11:44:51;4.67;;;1.77;;
50555;SDS011;36508;52.512;13.450;2023-04-24T11:47:18;1.20;;;1.20;;
50555;SDS011;36508;52.512;13.450;2023-04-24T11:49:43;1.80;;;1.27;;
50555;SDS011;36508;52.512;13.450;2023-04-24T11:52:09;3.53;;;1.57;;
50555;SDS011;36508;52.512;13.450;2023-04-24T11:54:35;1.73;;;1.63;;
50555;SDS011;36508;52.512;13.450;2023-04-24T11:57:05;1.30;;;0.90;;
50555;SDS011;36508;52.512;13.450;2023-04-24T11:59:35;1.10;;;1.00;;
50555;SDS011;36508;52.512;13.450;2023-04-24T12:02:02;4.80;;;1.33;;
50555;SDS011;36508;52.512;13.450;2023-04-24T12:04:37;1.70;;;1.60;;
50555;SDS011;36508;52.512;13.450;2023-04-24T12:07:06;1.70;;;1.60;;
50555;SDS011;36508;52.512;13.450;2023-04-24T12:12:29;2.10;;;2.00;;
50555;SDS011;36508;52.512;13.450;2023-04-24T12:14:56;2.03;;;1.20;;
50555;SDS011;36508;52.512;13.450;2023-04-24T12:17:24;1.43;;;1.33;;
50555;SDS011;36508;52.512;13.450;2023-04-24T12:19:56;1.63;;;1.53;;
50555;SDS011;36508;52.512;13.450;2023-04-24T12:22:24;3.93;;;2.33;;
50555;SDS011;36508;52.512;13.450;2023-04-24T12:24:56;2.10;;;1.90;;
50555;SDS011;36508;52.512;13.450;2023-04-24T12:27:33;1.40;;;1.30;;
50555;SDS011;36508;52.512;13.450;2023-04-24T12:29:59;1.67;;;1.57;;
50555;SDS011;36508;52.512;13.450;2023-04-24T12:32:26;2.37;;;2.27;;
50555;SDS011;36508;52.512;13.450;2023-04-24T12:34:52;1.97;;;1.80;;
50555;SDS011;36508;52.512;13.450;2023-04-24T12:37:20;2.77;;;1.33;;
50555;SDS011;36508;52.512;13.450;2023-04-24T12:42:33;4.97;;;2.10;;
50555;SDS011;36508;52.512;13.450;2023-04-24T12:45:00;1.93;;;1.83;;
50555;SDS011;36508;52.512;13.450;2023-04-24T12:47:29;28.17;;;4.80;;
50555;SDS011;36508;52.512;13.450;2023-04-24T12:49:56;2.53;;;1.20;;
50555;SDS011;36508;52.512;13.450;2023-04-24T12:52:22;2.40;;;2.23;;
50555;SDS011;36508;52.512;13.450;2023-04-24T12:54:49;1.70;;;1.60;;
50555;SDS011;36508;52.512;13.450;2023-04-24T12:57:15;3.47;;;3.27;;
50555;SDS011;36508;52.512;13.450;2023-04-24T12:59:41;2.73;;;2.40;;
50555;SDS011;36508;52.512;13.450;2023-04-24T13:02:07;1.43;;;1.33;;
50555;SDS011;36508;52.512;13.450;2023-04-24T13:04:34;2.50;;;2.40;;
50555;SDS011;36508;52.512;13.450;2023-04-24T13:06:59;1.80;;;1.70;;
50555;SDS011;36508;52.512;13.450;2023-04-24T13:09:25;3.13;;;2.43;;
50555;SDS011;36508;52.512;13.450;2023-04-24T13:11:51;3.23;;;2.93;;
50555;SDS011;36508;52.512;13.450;2023-04-24T13:14:16;2.90;;;2.37;;
50555;SDS011;36508;52.512;13.450;2023-04-24T13:16:42;2.53;;;1.43;;
50555;SDS011;36508;52.512;13.450;2023-04-24T13:19:07;1.60;;;1.50;;
50555;SDS011;36508;52.512;13.450;2023-04-24T13:21:33;2.53;;;2.37;;
50555;SDS011;36508;52.512;13.450;2023-04-24T13:23:58;2.13;;;2.03;;
50555;SDS011;36508;52.512;13.450;2023-04-24T13:26:24;1.80;;;1.70;;
50555;SDS011;36508;52.512;13.450;2023-04-24T13:28:50;2.03;;;1.50;;
50555;SDS011;36508;52.512;13.450;2023-04-24T13:31:16;1.67;;;1.50;;
50555;SDS011;36508;52.512;13.450;2023-04-24T13:33:41;1.43;;;1.33;;
50555;SDS011;36508;52.512;13.450;2023-04-24T13:36:07;1.27;;;1.17;;
50555;SDS011;36508;52.512;13.450;2023-04-24T13:38:34;3.53;;;1.37;;
50555;SDS011;36508;52.512;13.450;2023-04-24T13:40:59;1.40;;;1.20;;
50555;SDS011;36508;52.512;13.450;2023-04-24T13:43:25;1.63;;;1.10;;
50555;SDS011;36508;52.512;13.450;2023-04-24T13:45:51;4.17;;;2.50;;
50555;SDS011;36508;52.512;13.450;2023-04-24T13:48:17;1.00;;;1.00;;
50555;SDS011;36508;52.512;13.450;2023-04-24T13:50:43;2.70;;;1.50;;
50555;SDS011;36508;52.512;13.450;2023-04-24T13:53:09;4.70;;;1.40;;
50555;SDS011;36508;52.512;13.450;2023-04-24T13:55:35;2.60;;;1.43;;
50555;SDS011;36508;52.512;13.450;2023-04-24T13:58:01;3.50;;;1.17;;
50555;SDS011;36508;52.512;13.450;2023-04-24T14:00:27;1.57;;;1.47;;
50555;SDS011;36508;52.512;13.450;2023-04-24T14:02:53;2.50;;;1.30;;
50555;SDS011;36508;52.512;13.450;2023-04-24T14:05:19;0.97;;;0.90;;
50555;SDS011;36508;52.512;13.450;2023-04-24T14:07:45;2.30;;;2.10;;
50555;SDS011;36508;52.512;13.450;2023-04-24T14:10:11;4.10;;;1.93;;
50555;SDS011;36508;52.512;13.450;2023-04-24T14:12:37;2.43;;;2.17;;
50555;SDS011;36508;52.512;13.450;2023-04-24T14:15:03;2.50;;;2.30;;
50555;SDS011;36508;52.512;13.450;2023-04-24T14:17:29;3.57;;;2.93;;
50555;SDS011;36508;52.512;13.450;2023-04-24T14:19:56;3.23;;;2.60;;
50555;SDS011;36508;52.512;13.450;2023-04-24T14:22:28;1.23;;;1.20;;
50555;SDS011;36508;52.512;13.450;2023-04-24T14:24:54;1.33;;;1.23;;
50555;SDS011;36508;52.512;13.450;2023-04-24T14:27:20;3.03;;;2.03;;
50555;SDS011;36508;52.512;13.450;2023-04-24T14:29:45;4.20;;;1.93;;
50555;SDS011;36508;52.512;13.450;2023-04-24T14:32:11;5.03;;;2.10;;
50555;SDS011;36508;52.512;13.450;2023-04-24T14:34:39;1.50;;;1.40;;
50555;SDS011;36508;52.512;13.450;2023-04-24T14:37:05;5.40;;;4.53;;
50555;SDS011;36508;52.512;13.450;2023-04-24T14:39:31;1.70;;;1.60;;
50555;SDS011;36508;52.512;13.450;2023-04-24T14:41:56;1.60;;;1.50;;
50555;SDS011;36508;52.512;13.450;2023-04-24T14:44:22;1.60;;;1.50;;
50555;SDS011;36508;52.512;13.450;2023-04-24T14:46:48;2.40;;;1.80;;
50555;SDS011;36508;52.512;13.450;2023-04-24T14:49:14;1.53;;;1.43;;
50555;SDS011;36508;52.512;13.450;2023-04-24T14:51:40;3.20;;;1.53;;
50555;SDS011;36508;52.512;13.450;2023-04-24T14:54:06;2.03;;;1.93;;